^^
Station Historical Data
Daily Summary for April 19, 2017 Units:  Both    English   Metric
« Previous Day
Next Day »
Daily Weekly Monthly Yearly Custom
  High: Low: Average:
Temperature: 76.3 °F /  24.6 °C 51.6 °F /  10.9 °C 62.5 °F /  16.9 °C
Dew Point: 54.0 °F /  12.2 °C 46.0 °F /  7.8 °C 50.7 °F /  10.4 °C
Humidity: 91% 41% 68%
Wind Speed: 13.0mph /  20.9km/h - 2.7mph /  4.3km/h
Wind Gust: 21.0mph /  33.8km/h - -
Wind- - SSE
Pressure: 30.05 in /  1017.5 hPa 29.84 in /  1010.4 hPa -
Precipitation: 0.27 in /  6.86 mm    
Historical Graphs
 
 
Tabular Data for April 19, 2017
Time Temperature Dew Point Pressure Wind Wind Speed Wind Gust Humidity Rainfall Rate (Hourly) solar Conditions
00:05 63.1 °F /  17.3 °C 51.3 °F /  10.7 °C 29.92in /  1013.1hPa East 6.0mph /  9.7km/h 6.0mph /  9.7km/h 65% 0.00in /  0mm 0.0 W/m2
00:11 63.0 °F /  17.2 °C 51.1 °F /  10.6 °C 29.92in /  1013.1hPa Calm   7.0mph /  11.3km/h 65% 0.00in /  0mm 0.0 W/m2
00:17 63.0 °F /  17.2 °C 51.1 °F /  10.6 °C 29.92in /  1013.1hPa ENE 2.0mph /  3.2km/h 4.0mph /  6.4km/h 65% 0.00in /  0mm 0.0 W/m2
00:24 63.0 °F /  17.2 °C 51.4 °F /  10.8 °C 29.91in /  1012.8hPa Calm   5.0mph /  8km/h 66% 0.00in /  0mm 0.0 W/m2
00:30 62.8 °F /  17.1 °C 51.3 °F /  10.7 °C 29.91in /  1012.8hPa Calm   3.0mph /  4.8km/h 66% 0.00in /  0mm 0.0 W/m2
00:36 62.6 °F /  17 °C 51.4 °F /  10.8 °C 29.91in /  1012.8hPa Calm   3.0mph /  4.8km/h 67% 0.00in /  0mm 0.0 W/m2
00:42 62.4 °F /  16.9 °C 51.3 °F /  10.7 °C 29.91in /  1012.8hPa NE 2.9mph /  4.7km/h 6.0mph /  9.7km/h 67% 0.00in /  0mm 0.0 W/m2
00:48 62.4 °F /  16.9 °C 51.8 °F /  11 °C 29.91in /  1012.8hPa Calm   2.0mph /  3.2km/h 68% 0.00in /  0mm 0.0 W/m2
00:54 62.2 °F /  16.8 °C 51.6 °F /  10.9 °C 29.90in /  1012.4hPa ESE 4.0mph /  6.4km/h 4.0mph /  6.4km/h 68% 0.00in /  0mm 0.0 W/m2
01:00 62.1 °F /  16.7 °C 51.8 °F /  11 °C 29.90in /  1012.4hPa Calm   3.0mph /  4.8km/h 69% 0.00in /  0mm 0.0 W/m2
01:06 62.1 °F /  16.7 °C 51.8 °F /  11 °C 29.90in /  1012.4hPa Calm   2.0mph /  3.2km/h 69% 0.00in /  0mm 0.0 W/m2
01:12 61.9 °F /  16.6 °C 51.3 °F /  10.7 °C 29.90in /  1012.4hPa Calm   4.0mph /  6.4km/h 68% 0.00in /  0mm 0.0 W/m2
01:18 61.7 °F /  16.5 °C 51.1 °F /  10.6 °C 29.90in /  1012.4hPa ENE 2.9mph /  4.7km/h 3.0mph /  4.8km/h 68% 0.00in /  0mm 0.0 W/m2
01:24 61.5 °F /  16.4 °C 50.9 °F /  10.5 °C 29.90in /  1012.4hPa ENE 0.9mph /  1.4km/h 2.0mph /  3.2km/h 68% 0.00in /  0mm 0.0 W/m2
01:31 61.5 °F /  16.4 °C 51.3 °F /  10.7 °C 29.90in /  1012.4hPa ESE 0.9mph /  1.4km/h 2.0mph /  3.2km/h 69% 0.00in /  0mm 0.0 W/m2
01:37 61.3 °F /  16.3 °C 51.1 °F /  10.6 °C 29.90in /  1012.4hPa SSE 0.9mph /  1.4km/h 3.0mph /  4.8km/h 69% 0.00in /  0mm 0.0 W/m2
01:43 61.2 °F /  16.2 °C 50.9 °F /  10.5 °C 29.90in /  1012.4hPa Calm   1.0mph /  1.6km/h 69% 0.00in /  0mm 0.0 W/m2
01:49 61.2 °F /  16.2 °C 50.9 °F /  10.5 °C 29.90in /  1012.4hPa Calm     69% 0.00in /  0mm 0.0 W/m2
01:55 61.2 °F /  16.2 °C 50.9 °F /  10.5 °C 29.90in /  1012.4hPa Calm   1.0mph /  1.6km/h 69% 0.00in /  0mm 0.0 W/m2
02:01 61.0 °F /  16.1 °C 51.1 °F /  10.6 °C 29.90in /  1012.4hPa Calm     70% 0.00in /  0mm 0.0 W/m2
02:07 60.8 °F /  16 °C 50.9 °F /  10.5 °C 29.90in /  1012.4hPa Calm     70% 0.00in /  0mm 0.0 W/m2
02:13 60.6 °F /  15.9 °C 51.1 °F /  10.6 °C 29.90in /  1012.4hPa Calm   1.0mph /  1.6km/h 71% 0.00in /  0mm 0.0 W/m2
02:20 60.4 °F /  15.8 °C 51.1 °F /  10.6 °C 29.90in /  1012.4hPa Calm   1.0mph /  1.6km/h 71% 0.00in /  0mm 0.0 W/m2
02:26 60.1 °F /  15.6 °C 51.4 °F /  10.8 °C 29.90in /  1012.4hPa Calm   1.0mph /  1.6km/h 73% 0.00in /  0mm 0.0 W/m2
02:32 59.9 °F /  15.5 °C 51.6 °F /  10.9 °C 29.90in /  1012.4hPa Calm     74% 0.00in /  0mm 0.0 W/m2
02:38 59.5 °F /  15.3 °C 51.3 °F /  10.7 °C 29.90in /  1012.4hPa Calm     74% 0.00in /  0mm 0.0 W/m2
02:44 59.4 °F /  15.2 °C 51.4 °F /  10.8 °C 29.90in /  1012.4hPa Calm   1.0mph /  1.6km/h 75% 0.00in /  0mm 0.0 W/m2
02:50 59.0 °F /  15 °C 51.1 °F /  10.6 °C 29.90in /  1012.4hPa Calm   1.0mph /  1.6km/h 75% 0.00in /  0mm 0.0 W/m2
02:56 58.6 °F /  14.8 °C 50.7 °F /  10.4 °C 29.90in /  1012.4hPa Calm   1.0mph /  1.6km/h 75% 0.00in /  0mm 0.0 W/m2
03:02 58.5 °F /  14.7 °C 50.9 °F /  10.5 °C 29.90in /  1012.4hPa Calm     76% 0.00in /  0mm 0.0 W/m2
03:08 58.3 °F /  14.6 °C 50.7 °F /  10.4 °C 29.89in /  1012.1hPa Calm     76% 0.00in /  0mm 0.0 W/m2
03:14 57.9 °F /  14.4 °C 50.7 °F /  10.4 °C 29.89in /  1012.1hPa Calm     77% 0.00in /  0mm 0.0 W/m2
03:20 57.7 °F /  14.3 °C 50.9 °F /  10.5 °C 29.89in /  1012.1hPa Calm     78% 0.00in /  0mm 0.0 W/m2
03:27 57.4 °F /  14.1 °C 50.9 °F /  10.5 °C 29.90in /  1012.4hPa Calm     79% 0.00in /  0mm 0.0 W/m2
03:33 57.2 °F /  14 °C 51.1 °F /  10.6 °C 29.90in /  1012.4hPa Calm   1.0mph /  1.6km/h 80% 0.00in /  0mm 0.0 W/m2
03:39 57.0 °F /  13.9 °C 50.9 °F /  10.5 °C 29.90in /  1012.4hPa Calm     80% 0.00in /  0mm 0.0 W/m2
03:45 56.8 °F /  13.8 °C 51.1 °F /  10.6 °C 29.90in /  1012.4hPa Calm     81% 0.00in /  0mm 0.0 W/m2
03:51 56.7 °F /  13.7 °C 50.9 °F /  10.5 °C 29.90in /  1012.4hPa Calm     81% 0.00in /  0mm 0.0 W/m2
03:57 56.5 °F /  13.6 °C 50.7 °F /  10.4 °C 29.90in /  1012.4hPa Calm     81% 0.00in /  0mm 0.0 W/m2
04:03 56.1 °F /  13.4 °C 50.7 °F /  10.4 °C 29.90in /  1012.4hPa Calm   1.0mph /  1.6km/h 82% 0.00in /  0mm 0.0 W/m2
04:10 55.9 °F /  13.3 °C 50.5 °F /  10.3 °C 29.90in /  1012.4hPa Calm     82% 0.00in /  0mm 0.0 W/m2
04:16 55.8 °F /  13.2 °C 50.4 °F /  10.2 °C 29.91in /  1012.8hPa Calm   1.0mph /  1.6km/h 82% 0.00in /  0mm 0.0 W/m2
04:22 55.6 °F /  13.1 °C 50.5 °F /  10.3 °C 29.91in /  1012.8hPa Calm   1.0mph /  1.6km/h 83% 0.00in /  0mm 0.0 W/m2
04:28 55.4 °F /  13 °C 50.7 °F /  10.4 °C 29.91in /  1012.8hPa Calm   1.0mph /  1.6km/h 84% 0.00in /  0mm 0.0 W/m2
04:34 55.2 °F /  12.9 °C 50.5 °F /  10.3 °C 29.91in /  1012.8hPa Calm     84% 0.00in /  0mm 0.0 W/m2
04:40 55.0 °F /  12.8 °C 50.4 °F /  10.2 °C 29.91in /  1012.8hPa Calm     84% 0.00in /  0mm 0.0 W/m2
04:47 54.9 °F /  12.7 °C 50.2 °F /  10.1 °C 29.91in /  1012.8hPa Calm     84% 0.00in /  0mm 0.0 W/m2
04:53 54.9 °F /  12.7 °C 50.4 °F /  10.2 °C 29.91in /  1012.8hPa Calm     85% 0.00in /  0mm 0.0 W/m2
04:59 54.7 °F /  12.6 °C 50.2 °F /  10.1 °C 29.91in /  1012.8hPa Calm     85% 0.00in /  0mm 0.0 W/m2
05:05 54.5 °F /  12.5 °C 50.0 °F /  10 °C 29.91in /  1012.8hPa Calm   1.0mph /  1.6km/h 85% 0.00in /  0mm 0.0 W/m2
05:19 54.3 °F /  12.4 °C 49.8 °F /  9.9 °C 29.91in /  1012.8hPa Calm   1.0mph /  1.6km/h 85% 0.00in /  0mm 0.0 W/m2
05:25 54.3 °F /  12.4 °C 49.8 °F /  9.9 °C 29.91in /  1012.8hPa Calm     85% 0.00in /  0mm 0.0 W/m2
05:31 54.1 °F /  12.3 °C 49.8 °F /  9.9 °C 29.91in /  1012.8hPa Calm   2.0mph /  3.2km/h 85% 0.00in /  0mm 0.0 W/m2
05:38 54.1 °F /  12.3 °C 49.8 °F /  9.9 °C 29.91in /  1012.8hPa Calm     85% 0.00in /  0mm 0.0 W/m2
05:44 54.0 °F /  12.2 °C 49.6 °F /  9.8 °C 29.90in /  1012.4hPa Calm   1.0mph /  1.6km/h 85% 0.00in /  0mm 0.0 W/m2
05:50 54.0 °F /  12.2 °C 49.6 °F /  9.8 °C 29.91in /  1012.8hPa Calm     85% 0.00in /  0mm 0.0 W/m2
05:56 53.8 °F /  12.1 °C 49.6 °F /  9.8 °C 29.91in /  1012.8hPa Calm     86% 0.00in /  0mm 0.0 W/m2
06:02 53.8 °F /  12.1 °C 49.6 °F /  9.8 °C 29.91in /  1012.8hPa Calm     86% 0.00in /  0mm 0.0 W/m2
06:08 53.8 °F /  12.1 °C 49.6 °F /  9.8 °C 29.92in /  1013.1hPa Calm     86% 0.00in /  0mm 0.0 W/m2
06:14 53.6 °F /  12 °C 49.5 °F /  9.7 °C 29.92in /  1013.1hPa Calm   1.0mph /  1.6km/h 86% 0.00in /  0mm 5.0 W/m2
06:21 53.6 °F /  12 °C 49.5 °F /  9.7 °C 29.92in /  1013.1hPa Calm   2.0mph /  3.2km/h 86% 0.00in /  0mm 7.0 W/m2
06:27 53.6 °F /  12 °C 49.5 °F /  9.7 °C 29.93in /  1013.4hPa NE 0.9mph /  1.4km/h 2.0mph /  3.2km/h 86% 0.00in /  0mm 9.0 W/m2
06:33 53.4 °F /  11.9 °C 49.3 °F /  9.6 °C 29.93in /  1013.4hPa Calm   2.0mph /  3.2km/h 86% 0.00in /  0mm 11.0 W/m2
06:39 53.8 °F /  12.1 °C 49.6 °F /  9.8 °C 29.93in /  1013.4hPa East 2.0mph /  3.2km/h 4.0mph /  6.4km/h 86% 0.00in /  0mm 12.0 W/m2
06:45 54.0 °F /  12.2 °C 49.8 °F /  9.9 °C 29.93in /  1013.4hPa East 0.9mph /  1.4km/h 3.0mph /  4.8km/h 86% 0.00in /  0mm 14.0 W/m2
06:51 54.1 °F /  12.3 °C 50.0 °F /  10 °C 29.93in /  1013.4hPa ENE 0.9mph /  1.4km/h 3.0mph /  4.8km/h 86% 0.00in /  0mm 14.0 W/m2
06:57 54.3 °F /  12.4 °C 50.2 °F /  10.1 °C 29.93in /  1013.4hPa Calm   4.0mph /  6.4km/h 86% 0.00in /  0mm 16.0 W/m2
07:03 54.7 °F /  12.6 °C 50.5 °F /  10.3 °C 29.93in /  1013.4hPa Calm   3.0mph /  4.8km/h 86% 0.00in /  0mm 18.0 W/m2
07:09 55.0 °F /  12.8 °C 50.9 °F /  10.5 °C 29.93in /  1013.4hPa Calm   1.0mph /  1.6km/h 86% 0.00in /  0mm 18.0 W/m2
07:15 55.8 °F /  13.2 °C 51.6 °F /  10.9 °C 29.93in /  1013.4hPa East 2.0mph /  3.2km/h 5.0mph /  8km/h 86% 0.00in /  0mm 19.0 W/m2
07:22 56.5 °F /  13.6 °C 51.6 °F /  10.9 °C 29.93in /  1013.4hPa East 0.9mph /  1.4km/h 5.0mph /  8km/h 84% 0.00in /  0mm 19.0 W/m2
07:28 57.4 °F /  14.1 °C 52.0 °F /  11.1 °C 29.93in /  1013.4hPa Calm   4.0mph /  6.4km/h 82% 0.00in /  0mm 21.0 W/m2
07:34 58.1 °F /  14.5 °C 52.3 °F /  11.3 °C 29.93in /  1013.4hPa NE 2.0mph /  3.2km/h 3.0mph /  4.8km/h 81% 0.00in /  0mm 25.0 W/m2
07:40 59.0 °F /  15 °C 52.5 °F /  11.4 °C 29.93in /  1013.4hPa ENE 2.9mph /  4.7km/h 4.0mph /  6.4km/h 79% 0.00in /  0mm 26.0 W/m2
07:46 60.1 °F /  15.6 °C 52.5 °F /  11.4 °C 29.93in /  1013.4hPa ENE 0.9mph /  1.4km/h 4.0mph /  6.4km/h 76% 0.00in /  0mm 32.0 W/m2
07:52 61.0 °F /  16.1 °C 52.7 °F /  11.5 °C 29.93in /  1013.4hPa NE 0.9mph /  1.4km/h 3.0mph /  4.8km/h 74% 0.00in /  0mm 25.0 W/m2
07:58 61.5 °F /  16.4 °C 52.7 °F /  11.5 °C 29.93in /  1013.4hPa Calm   3.0mph /  4.8km/h 73% 0.00in /  0mm 26.0 W/m2
08:04 62.2 °F /  16.8 °C 52.3 °F /  11.3 °C 29.94in /  1013.8hPa NE 0.9mph /  1.4km/h 2.0mph /  3.2km/h 70% 0.00in /  0mm 26.0 W/m2
08:11 63.0 °F /  17.2 °C 51.8 °F /  11 °C 29.94in /  1013.8hPa ENE 0.9mph /  1.4km/h 1.0mph /  1.6km/h 67% 0.00in /  0mm 28.0 W/m2
08:17 63.7 °F /  17.6 °C 51.6 °F /  10.9 °C 29.94in /  1013.8hPa ENE 2.0mph /  3.2km/h 2.0mph /  3.2km/h 65% 0.00in /  0mm 32.0 W/m2
08:23 64.2 °F /  17.9 °C 51.4 °F /  10.8 °C 29.94in /  1013.8hPa North 0.9mph /  1.4km/h 5.0mph /  8km/h 63% 0.00in /  0mm 32.0 W/m2
08:29 64.8 °F /  18.2 °C 51.4 °F /  10.8 °C 29.94in /  1013.8hPa Calm   1.0mph /  1.6km/h 62% 0.00in /  0mm 35.0 W/m2
08:35 65.5 °F /  18.6 °C 50.4 °F /  10.2 °C 29.94in /  1013.8hPa NNE 2.0mph /  3.2km/h 4.0mph /  6.4km/h 58% 0.00in /  0mm 519.0 W/m2
08:41 66.7 °F /  19.3 °C 51.4 °F /  10.8 °C 29.94in /  1013.8hPa Calm   2.0mph /  3.2km/h 58% 0.00in /  0mm 538.0 W/m2
08:47 67.8 °F /  19.9 °C 51.6 °F /  10.9 °C 29.94in /  1013.8hPa NE 2.0mph /  3.2km/h 6.0mph /  9.7km/h 56% 0.00in /  0mm 559.0 W/m2
08:53 69.1 °F /  20.6 °C 51.8 °F /  11 °C 29.95in /  1014.1hPa Calm   1.0mph /  1.6km/h 54% 0.00in /  0mm 577.0 W/m2
09:00 70.3 °F /  21.3 °C 51.8 °F /  11 °C 29.95in /  1014.1hPa NW 2.0mph /  3.2km/h 4.0mph /  6.4km/h 52% 0.00in /  0mm 596.0 W/m2
09:06 71.4 °F /  21.9 °C 52.3 °F /  11.3 °C 29.95in /  1014.1hPa East 2.0mph /  3.2km/h 2.0mph /  3.2km/h 51% 0.00in /  0mm 615.0 W/m2
09:12 72.0 °F /  22.2 °C 52.3 °F /  11.3 °C 29.95in /  1014.1hPa Calm   3.0mph /  4.8km/h 50% 0.00in /  0mm 629.0 W/m2
09:18 72.7 °F /  22.6 °C 52.3 °F /  11.3 °C 29.95in /  1014.1hPa Calm   3.0mph /  4.8km/h 49% 0.00in /  0mm 656.0 W/m2
09:24 73.2 °F /  22.9 °C 52.9 °F /  11.6 °C 29.95in /  1014.1hPa NNE 2.9mph /  4.7km/h 4.0mph /  6.4km/h 49% 0.00in /  0mm 670.0 W/m2
09:30 73.6 °F /  23.1 °C 52.7 °F /  11.5 °C 29.95in /  1014.1hPa NNW 2.0mph /  3.2km/h 6.0mph /  9.7km/h 48% 0.00in /  0mm 684.0 W/m2
09:37 73.8 °F /  23.2 °C 51.1 °F /  10.6 °C 29.95in /  1014.1hPa ENE 4.0mph /  6.4km/h 6.0mph /  9.7km/h 45% 0.00in /  0mm 694.0 W/m2
09:43 74.1 °F /  23.4 °C 50.2 °F /  10.1 °C 29.95in /  1014.1hPa ENE 2.0mph /  3.2km/h 6.0mph /  9.7km/h 43% 0.00in /  0mm 707.0 W/m2
09:49 74.5 °F /  23.6 °C 50.5 °F /  10.3 °C 29.95in /  1014.1hPa North 0.9mph /  1.4km/h 3.0mph /  4.8km/h 43% 0.00in /  0mm 717.0 W/m2
09:55 74.5 °F /  23.6 °C 49.8 °F /  9.9 °C 29.94in /  1013.8hPa NNE 2.9mph /  4.7km/h 3.0mph /  4.8km/h 42% 0.00in /  0mm 731.0 W/m2
10:01 74.7 °F /  23.7 °C 50.0 °F /  10 °C 29.94in /  1013.8hPa NNE 2.0mph /  3.2km/h 4.0mph /  6.4km/h 42% 0.00in /  0mm 745.0 W/m2
10:07 75.0 °F /  23.9 °C 51.1 °F /  10.6 °C 29.94in /  1013.8hPa NW 4.0mph /  6.4km/h 8.0mph /  12.9km/h 43% 0.00in /  0mm 758.0 W/m2
10:13 75.4 °F /  24.1 °C 51.3 °F /  10.7 °C 29.94in /  1013.8hPa NNE 2.9mph /  4.7km/h 4.0mph /  6.4km/h 43% 0.00in /  0mm 780.0 W/m2
10:19 75.6 °F /  24.2 °C 51.4 °F /  10.8 °C 29.94in /  1013.8hPa ESE 2.0mph /  3.2km/h 5.0mph /  8km/h 43% 0.00in /  0mm 826.0 W/m2
10:25 75.6 °F /  24.2 °C 50.2 °F /  10.1 °C 29.94in /  1013.8hPa Calm   5.0mph /  8km/h 41% 0.00in /  0mm 262.0 W/m2
10:32 75.0 °F /  23.9 °C 51.6 °F /  10.9 °C 29.94in /  1013.8hPa NW 2.9mph /  4.7km/h 11.0mph /  17.7km/h 44% 0.00in /  0mm 991.0 W/m2
10:38 74.1 °F /  23.4 °C 52.0 °F /  11.1 °C 29.93in /  1013.4hPa SW 2.9mph /  4.7km/h 9.0mph /  14.5km/h 46% 0.00in /  0mm 199.0 W/m2
10:44 73.2 °F /  22.9 °C 53.4 °F /  11.9 °C 29.93in /  1013.4hPa NNW 8.1mph /  13km/h 10.0mph /  16.1km/h 50% 0.00in /  0mm 281.0 W/m2
10:50 72.9 °F /  22.7 °C 53.6 °F /  12 °C 29.93in /  1013.4hPa NW 2.0mph /  3.2km/h 7.0mph /  11.3km/h 51% 0.00in /  0mm 251.0 W/m2
10:56 72.3 °F /  22.4 °C 53.2 °F /  11.8 °C 29.93in /  1013.4hPa NNW 6.0mph /  9.7km/h 12.0mph /  19.3km/h 51% 0.00in /  0mm 292.0 W/m2
11:02 72.7 °F /  22.6 °C 53.4 °F /  11.9 °C 29.93in /  1013.4hPa NNE 6.9mph /  11.1km/h 8.0mph /  12.9km/h 51% 0.00in /  0mm 990.0 W/m2
11:08 73.6 °F /  23.1 °C 53.8 °F /  12.1 °C 29.93in /  1013.4hPa NNE 2.0mph /  3.2km/h 8.0mph /  12.9km/h 50% 0.00in /  0mm 272.0 W/m2
11:14 73.6 °F /  23.1 °C 53.2 °F /  11.8 °C 29.93in /  1013.4hPa NNW 0.9mph /  1.4km/h 7.0mph /  11.3km/h 49% 0.00in /  0mm 306.0 W/m2
11:20 73.2 °F /  22.9 °C 53.4 °F /  11.9 °C 29.92in /  1013.1hPa North 2.9mph /  4.7km/h 6.0mph /  9.7km/h 50% 0.00in /  0mm 1039.0 W/m2
11:25 73.8 °F /  23.2 °C 54.0 °F /  12.2 °C 29.92in /  1013.1hPa NNE 4.9mph /  7.9km/h 8.0mph /  12.9km/h 50% 0.00in /  0mm 933.0 W/m2
11:30 74.5 °F /  23.6 °C 53.4 °F /  11.9 °C 29.91in /  1012.8hPa NNE 2.0mph /  3.2km/h 7.0mph /  11.3km/h 48% 0.00in /  0mm 884.0 W/m2
11:36 74.8 °F /  23.8 °C 53.2 °F /  11.8 °C 29.92in /  1013.1hPa NNW 2.0mph /  3.2km/h 11.0mph /  17.7km/h 47% 0.00in /  0mm 900.0 W/m2
11:42 75.4 °F /  24.1 °C 53.8 °F /  12.1 °C 29.91in /  1012.8hPa NNE 6.0mph /  9.7km/h 8.0mph /  12.9km/h 47% 0.00in /  0mm 932.0 W/m2
11:48 75.6 °F /  24.2 °C 53.2 °F /  11.8 °C 29.91in /  1012.8hPa NNW 8.1mph /  13km/h 10.0mph /  16.1km/h 46% 0.00in /  0mm 947.0 W/m2
11:54 75.2 °F /  24 °C 52.3 °F /  11.3 °C 29.91in /  1012.8hPa North 4.0mph /  6.4km/h 9.0mph /  14.5km/h 45% 0.00in /  0mm 979.0 W/m2
12:00 75.0 °F /  23.9 °C 53.4 °F /  11.9 °C 29.90in /  1012.4hPa NNW 4.0mph /  6.4km/h 6.0mph /  9.7km/h 47% 0.00in /  0mm 925.0 W/m2
12:06 75.6 °F /  24.2 °C 53.2 °F /  11.8 °C 29.90in /  1012.4hPa NNW 4.0mph /  6.4km/h 10.0mph /  16.1km/h 46% 0.00in /  0mm 944.0 W/m2
12:12 75.7 °F /  24.3 °C 52.9 °F /  11.6 °C 29.89in /  1012.1hPa NW 8.1mph /  13km/h 13.0mph /  20.9km/h 45% 0.00in /  0mm 884.0 W/m2
12:18 75.7 °F /  24.3 °C 52.9 °F /  11.6 °C 29.89in /  1012.1hPa North 2.9mph /  4.7km/h 7.0mph /  11.3km/h 45% 0.00in /  0mm 860.0 W/m2
12:24 75.7 °F /  24.3 °C 52.9 °F /  11.6 °C 29.89in /  1012.1hPa North 6.9mph /  11.1km/h 8.0mph /  12.9km/h 45% 0.00in /  0mm 842.0 W/m2
12:30 75.9 °F /  24.4 °C 52.5 °F /  11.4 °C 29.89in /  1012.1hPa NNE 6.0mph /  9.7km/h 13.0mph /  20.9km/h 44% 0.00in /  0mm 856.0 W/m2
12:36 75.7 °F /  24.3 °C 52.3 °F /  11.3 °C 29.88in /  1011.7hPa Calm   9.0mph /  14.5km/h 44% 0.00in /  0mm 838.0 W/m2
12:42 75.9 °F /  24.4 °C 52.5 °F /  11.4 °C 29.88in /  1011.7hPa WNW 6.9mph /  11.1km/h 7.0mph /  11.3km/h 44% 0.00in /  0mm 886.0 W/m2
12:48 75.6 °F /  24.2 °C 52.7 °F /  11.5 °C 29.88in /  1011.7hPa NE 2.9mph /  4.7km/h 7.0mph /  11.3km/h 45% 0.00in /  0mm 995.0 W/m2
12:54 75.6 °F /  24.2 °C 52.2 °F /  11.2 °C 29.87in /  1011.4hPa NW 2.9mph /  4.7km/h 10.0mph /  16.1km/h 44% 0.00in /  0mm 278.0 W/m2
13:00 75.6 °F /  24.2 °C 52.7 °F /  11.5 °C 29.87in /  1011.4hPa ENE 6.0mph /  9.7km/h 16.0mph /  25.7km/h 45% 0.00in /  0mm 1048.0 W/m2
13:06 75.4 °F /  24.1 °C 53.2 °F /  11.8 °C 29.87in /  1011.4hPa North 6.0mph /  9.7km/h 10.0mph /  16.1km/h 46% 0.00in /  0mm 1030.0 W/m2
13:12 75.4 °F /  24.1 °C 51.3 °F /  10.7 °C 29.87in /  1011.4hPa North 10.1mph /  16.3km/h 13.0mph /  20.9km/h 43% 0.00in /  0mm 1007.0 W/m2
13:18 75.6 °F /  24.2 °C 51.4 °F /  10.8 °C 29.86in /  1011.1hPa NNE 4.0mph /  6.4km/h 9.0mph /  14.5km/h 43% 0.00in /  0mm 1004.0 W/m2
13:24 75.7 °F /  24.3 °C 50.4 °F /  10.2 °C 29.86in /  1011.1hPa NNW 2.9mph /  4.7km/h 14.0mph /  22.5km/h 41% 0.00in /  0mm 865.0 W/m2
13:30 75.9 °F /  24.4 °C 50.5 °F /  10.3 °C 29.86in /  1011.1hPa North 2.0mph /  3.2km/h 10.0mph /  16.1km/h 41% 0.00in /  0mm 854.0 W/m2
13:36 75.6 °F /  24.2 °C 52.2 °F /  11.2 °C 29.86in /  1011.1hPa NNE 6.9mph /  11.1km/h 11.0mph /  17.7km/h 44% 0.00in /  0mm 278.0 W/m2
13:42 75.7 °F /  24.3 °C 50.4 °F /  10.2 °C 29.86in /  1011.1hPa North 6.9mph /  11.1km/h 10.0mph /  16.1km/h 41% 0.00in /  0mm 176.0 W/m2
13:48 75.0 °F /  23.9 °C 49.6 °F /  9.8 °C 29.86in /  1011.1hPa North 2.9mph /  4.7km/h 8.0mph /  12.9km/h 41% 0.00in /  0mm 216.0 W/m2
13:54 74.8 °F /  23.8 °C 50.9 °F /  10.5 °C 29.85in /  1010.7hPa North 4.0mph /  6.4km/h 9.0mph /  14.5km/h 43% 0.00in /  0mm 185.0 W/m2
14:00 75.0 °F /  23.9 °C 49.6 °F /  9.8 °C 29.85in /  1010.7hPa ENE 6.0mph /  9.7km/h 10.0mph /  16.1km/h 41% 0.00in /  0mm 772.0 W/m2
14:06 75.7 °F /  24.3 °C 51.6 °F /  10.9 °C 29.85in /  1010.7hPa NNW 6.9mph /  11.1km/h 9.0mph /  14.5km/h 43% 0.00in /  0mm 728.0 W/m2
14:12 75.9 °F /  24.4 °C 51.8 °F /  11 °C 29.85in /  1010.7hPa Calm   9.0mph /  14.5km/h 43% 0.00in /  0mm 740.0 W/m2
14:18 75.6 °F /  24.2 °C 51.4 °F /  10.8 °C 29.85in /  1010.7hPa North 8.1mph /  13km/h 11.0mph /  17.7km/h 43% 0.00in /  0mm 766.0 W/m2
14:24 75.4 °F /  24.1 °C 51.3 °F /  10.7 °C 29.85in /  1010.7hPa Calm   7.0mph /  11.3km/h 43% 0.00in /  0mm 777.0 W/m2
14:30 75.4 °F /  24.1 °C 51.3 °F /  10.7 °C 29.85in /  1010.7hPa NNW 4.9mph /  7.9km/h 11.0mph /  17.7km/h 43% 0.00in /  0mm 786.0 W/m2
14:36 75.9 °F /  24.4 °C 51.8 °F /  11 °C 29.85in /  1010.7hPa North 4.9mph /  7.9km/h 10.0mph /  16.1km/h 43% 0.00in /  0mm 763.0 W/m2
14:42 76.3 °F /  24.6 °C 51.4 °F /  10.8 °C 29.85in /  1010.7hPa NNW 4.0mph /  6.4km/h 7.0mph /  11.3km/h 42% 0.00in /  0mm 782.0 W/m2
14:48 75.9 °F /  24.4 °C 51.3 °F /  10.7 °C 29.85in /  1010.7hPa NNE 4.0mph /  6.4km/h 14.0mph /  22.5km/h 42% 0.00in /  0mm 251.0 W/m2
14:54 75.2 °F /  24 °C 51.8 °F /  11 °C 29.84in /  1010.4hPa NNW 4.9mph /  7.9km/h 5.0mph /  8km/h 44% 0.00in /  0mm 684.0 W/m2
15:00 75.6 °F /  24.2 °C 51.4 °F /  10.8 °C 29.85in /  1010.7hPa NNW 4.9mph /  7.9km/h 11.0mph /  17.7km/h 43% 0.00in /  0mm 216.0 W/m2
15:06 75.4 °F /  24.1 °C 51.3 °F /  10.7 °C 29.85in /  1010.7hPa North 0.9mph /  1.4km/h 7.0mph /  11.3km/h 43% 0.00in /  0mm 664.0 W/m2
15:12 75.4 °F /  24.1 °C 50.7 °F /  10.4 °C 29.85in /  1010.7hPa WSW 0.9mph /  1.4km/h 10.0mph /  16.1km/h 42% 0.00in /  0mm 211.0 W/m2
15:18 75.4 °F /  24.1 °C 51.3 °F /  10.7 °C 29.85in /  1010.7hPa NNE 8.9mph /  14.3km/h 12.0mph /  19.3km/h 43% 0.00in /  0mm 624.0 W/m2
15:24 75.4 °F /  24.1 °C 50.7 °F /  10.4 °C 29.85in /  1010.7hPa NW 4.0mph /  6.4km/h 7.0mph /  11.3km/h 42% 0.00in /  0mm 445.0 W/m2
15:30 75.4 °F /  24.1 °C 50.7 °F /  10.4 °C 29.85in /  1010.7hPa NNW 2.9mph /  4.7km/h 5.0mph /  8km/h 42% 0.00in /  0mm 230.0 W/m2
15:36 74.8 °F /  23.8 °C 52.7 °F /  11.5 °C 29.86in /  1011.1hPa SSE 6.0mph /  9.7km/h 8.0mph /  12.9km/h 46% 0.00in /  0mm 144.0 W/m2
15:42 72.3 °F /  22.4 °C 51.4 °F /  10.8 °C 29.86in /  1011.1hPa SSE 10.1mph /  16.3km/h 12.0mph /  19.3km/h 48% 0.00in /  0mm 98.0 W/m2
15:48 69.6 °F /  20.9 °C 51.3 °F /  10.7 °C 29.87in /  1011.4hPa SSE 8.1mph /  13km/h 11.0mph /  17.7km/h 52% 0.00in /  0mm 76.0 W/m2
15:54 67.6 °F /  19.8 °C 49.8 °F /  9.9 °C 29.87in /  1011.4hPa ESE 6.0mph /  9.7km/h 11.0mph /  17.7km/h 53% 0.00in /  0mm 32.0 W/m2
16:00 66.2 °F /  19 °C 48.0 °F /  8.9 °C 29.88in /  1011.7hPa SSW 6.0mph /  9.7km/h 12.0mph /  19.3km/h 52% 0.00in /  0mm 26.0 W/m2
16:06 65.1 °F /  18.4 °C 48.0 °F /  8.9 °C 29.88in /  1011.7hPa South 0.9mph /  1.4km/h 7.0mph /  11.3km/h 54% 0.00in /  0mm 16.0 W/m2
16:12 64.6 °F /  18.1 °C 48.0 °F /  8.9 °C 29.88in /  1011.7hPa South 0.9mph /  1.4km/h 5.0mph /  8km/h 55% 0.00in /  0mm 12.0 W/m2
16:18 64.4 °F /  18 °C 46.4 °F /  8 °C 29.88in /  1011.7hPa ESE 11.0mph /  17.7km/h 11.0mph /  17.7km/h 52% 0.00in /  0mm 9.0 W/m2
16:24 64.6 °F /  18.1 °C 46.0 °F /  7.8 °C 29.88in /  1011.7hPa SE 6.9mph /  11.1km/h 11.0mph /  17.7km/h 51% 0.00in /  0mm 11.0 W/m2
16:30 64.6 °F /  18.1 °C 47.1 °F /  8.4 °C 29.89in /  1012.1hPa SE 8.1mph /  13km/h 11.0mph /  17.7km/h 53% 0.00in /  0mm 9.0 W/m2
16:36 64.2 °F /  17.9 °C 50.5 °F /  10.3 °C 29.89in /  1012.1hPa SE 4.0mph /  6.4km/h 10.0mph /  16.1km/h 61% 0.01in /  0.25mm 7.0 W/m2
16:42 63.0 °F /  17.2 °C 51.8 °F /  11 °C 29.89in /  1012.1hPa ESE 6.0mph /  9.7km/h 7.0mph /  11.3km/h 67% 0.04in /  1.02mm 7.0 W/m2
16:48 61.3 °F /  16.3 °C 51.4 °F /  10.8 °C 29.90in /  1012.4hPa ESE 6.0mph /  9.7km/h 11.0mph /  17.7km/h 70% 0.05in /  1.27mm 7.0 W/m2
16:55 59.9 °F /  15.5 °C 51.6 °F /  10.9 °C 29.90in /  1012.4hPa SE 2.0mph /  3.2km/h 10.0mph /  16.1km/h 74% 0.05in /  1.27mm 9.0 W/m2
17:01 58.6 °F /  14.8 °C 50.0 °F /  10 °C 29.89in /  1012.1hPa SSE 6.0mph /  9.7km/h 14.0mph /  22.5km/h 73% 0.06in /  1.52mm 9.0 W/m2
17:07 57.9 °F /  14.4 °C 49.6 °F /  9.8 °C 29.90in /  1012.4hPa SE 4.9mph /  7.9km/h 11.0mph /  17.7km/h 74% 0.06in /  1.52mm 7.0 W/m2
17:13 57.7 °F /  14.3 °C 50.9 °F /  10.5 °C 29.90in /  1012.4hPa ENE 2.9mph /  4.7km/h 8.0mph /  12.9km/h 78% 0.06in /  1.52mm 9.0 W/m2
17:19 57.6 °F /  14.2 °C 50.7 °F /  10.4 °C 29.90in /  1012.4hPa South 2.9mph /  4.7km/h 7.0mph /  11.3km/h 78% 0.06in /  1.52mm 5.0 W/m2
17:25 57.6 °F /  14.2 °C 50.0 °F /  10 °C 29.90in /  1012.4hPa East 6.0mph /  9.7km/h 9.0mph /  14.5km/h 76% 0.06in /  1.52mm 0.0 W/m2
17:31 57.6 °F /  14.2 °C 49.3 °F /  9.6 °C 29.90in /  1012.4hPa SSE 4.9mph /  7.9km/h 9.0mph /  14.5km/h 74% 0.06in /  1.52mm 0.0 W/m2
17:37 57.7 °F /  14.3 °C 48.7 °F /  9.3 °C 29.91in /  1012.8hPa SE 6.0mph /  9.7km/h 9.0mph /  14.5km/h 72% 0.04in /  1.02mm 0.0 W/m2
17:43 58.1 °F /  14.5 °C 48.4 °F /  9.1 °C 29.91in /  1012.8hPa SSE 4.0mph /  6.4km/h 7.0mph /  11.3km/h 70% 0.01in /  0.25mm 0.0 W/m2
17:49 58.3 °F /  14.6 °C 48.2 °F /  9 °C 29.91in /  1012.8hPa SSE 4.0mph /  6.4km/h 8.0mph /  12.9km/h 69% 0.01in /  0.25mm 0.0 W/m2
17:55 58.5 °F /  14.7 °C 48.0 °F /  8.9 °C 29.92in /  1013.1hPa SSE 4.0mph /  6.4km/h 8.0mph /  12.9km/h 68% 0.00in /  0mm 0.0 W/m2
18:01 58.6 °F /  14.8 °C 47.7 °F /  8.7 °C 29.93in /  1013.4hPa ESE 4.0mph /  6.4km/h 5.0mph /  8km/h 67% 0.00in /  0mm 0.0 W/m2
18:08 58.8 °F /  14.9 °C 47.8 °F /  8.8 °C 29.94in /  1013.8hPa SE 0.9mph /  1.4km/h 6.0mph /  9.7km/h 67% 0.00in /  0mm 0.0 W/m2
18:14 58.8 °F /  14.9 °C 47.1 °F /  8.4 °C 29.94in /  1013.8hPa SSE 0.9mph /  1.4km/h 4.0mph /  6.4km/h 65% 0.00in /  0mm 0.0 W/m2
18:20 59.2 °F /  15.1 °C 48.2 °F /  9 °C 29.94in /  1013.8hPa SSE 4.9mph /  7.9km/h 9.0mph /  14.5km/h 67% 0.00in /  0mm 0.0 W/m2
18:26 59.5 °F /  15.3 °C 47.8 °F /  8.8 °C 29.95in /  1014.1hPa SSE 6.9mph /  11.1km/h 14.0mph /  22.5km/h 65% 0.00in /  0mm 0.0 W/m2
18:32 60.1 °F /  15.6 °C 47.8 °F /  8.8 °C 29.96in /  1014.4hPa SSE 6.0mph /  9.7km/h 13.0mph /  20.9km/h 64% 0.00in /  0mm 0.0 W/m2
18:36 60.1 °F /  15.6 °C 48.7 °F /  9.3 °C 29.97in /  1014.8hPa SE 4.0mph /  6.4km/h 17.0mph /  27.4km/h 66% 0.00in /  0mm 0.0 W/m2
18:42 59.0 °F /  15 °C 50.0 °F /  10 °C 29.96in /  1014.4hPa SW 8.1mph /  13km/h 20.0mph /  32.2km/h 72% 0.00in /  0mm 0.0 W/m2
18:48 57.7 °F /  14.3 °C 49.5 °F /  9.7 °C 29.97in /  1014.8hPa SSE 10.1mph /  16.3km/h 19.0mph /  30.6km/h 74% 0.00in /  0mm 0.0 W/m2
18:55 57.2 °F /  14 °C 49.6 °F /  9.8 °C 29.98in /  1015.1hPa SE 13.0mph /  20.9km/h 18.0mph /  29km/h 76% 0.00in /  0mm 0.0 W/m2
19:01 56.8 °F /  13.8 °C 49.6 °F /  9.8 °C 29.98in /  1015.1hPa SSE 8.1mph /  13km/h 16.0mph /  25.7km/h 77% 0.00in /  0mm 0.0 W/m2
19:07 56.7 °F /  13.7 °C 49.8 °F /  9.9 °C 29.99in /  1015.5hPa SSE 6.9mph /  11.1km/h 21.0mph /  33.8km/h 78% 0.00in /  0mm 0.0 W/m2
19:13 56.7 °F /  13.7 °C 50.2 °F /  10.1 °C 29.99in /  1015.5hPa South 6.0mph /  9.7km/h 11.0mph /  17.7km/h 79% 0.00in /  0mm 0.0 W/m2
19:19 56.7 °F /  13.7 °C 50.5 °F /  10.3 °C 30.01in /  1016.1hPa SW 0.9mph /  1.4km/h 11.0mph /  17.7km/h 80% 0.00in /  0mm 0.0 W/m2
19:25 56.1 °F /  13.4 °C 50.7 °F /  10.4 °C 30.02in /  1016.5hPa West 2.9mph /  4.7km/h 15.0mph /  24.1km/h 82% 0.00in /  0mm 0.0 W/m2
19:31 55.9 °F /  13.3 °C 50.9 °F /  10.5 °C 30.03in /  1016.8hPa West 4.9mph /  7.9km/h 8.0mph /  12.9km/h 83% 0.00in /  0mm 0.0 W/m2
19:37 55.8 °F /  13.2 °C 51.1 °F /  10.6 °C 30.03in /  1016.8hPa SW 0.9mph /  1.4km/h 10.0mph /  16.1km/h 84% 0.01in /  0.25mm 0.0 W/m2
19:43 55.8 °F /  13.2 °C 51.6 °F /  10.9 °C 30.03in /  1016.8hPa SSW 0.9mph /  1.4km/h 7.0mph /  11.3km/h 86% 0.02in /  0.51mm 0.0 W/m2
19:49 55.4 °F /  13 °C 51.3 °F /  10.7 °C 30.02in /  1016.5hPa South 4.0mph /  6.4km/h 13.0mph /  20.9km/h 86% 0.03in /  0.76mm 0.0 W/m2
19:55 55.0 °F /  12.8 °C 51.3 °F /  10.7 °C 30.02in /  1016.5hPa SW 6.0mph /  9.7km/h 13.0mph /  20.9km/h 87% 0.04in /  1.02mm 0.0 W/m2
20:02 54.9 °F /  12.7 °C 51.1 °F /  10.6 °C 30.02in /  1016.5hPa SSW 4.9mph /  7.9km/h 18.0mph /  29km/h 87% 0.05in /  1.27mm 0.0 W/m2
20:07 54.7 °F /  12.6 °C 51.3 °F /  10.7 °C 30.02in /  1016.5hPa SSW 2.0mph /  3.2km/h 14.0mph /  22.5km/h 88% 0.06in /  1.52mm 0.0 W/m2
20:16 54.3 °F /  12.4 °C 51.1 °F /  10.6 °C 30.02in /  1016.5hPa South 2.9mph /  4.7km/h 15.0mph /  24.1km/h 89% 0.07in /  1.78mm 0.0 W/m2
20:22 54.1 °F /  12.3 °C 50.9 °F /  10.5 °C 30.02in /  1016.5hPa SE 2.9mph /  4.7km/h 14.0mph /  22.5km/h 89% 0.08in /  2.03mm 0.0 W/m2
20:28 54.0 °F /  12.2 °C 51.1 °F /  10.6 °C 30.01in /  1016.1hPa South 2.9mph /  4.7km/h 13.0mph /  20.9km/h 90% 0.09in /  2.29mm 0.0 W/m2
20:34 53.8 °F /  12.1 °C 50.9 °F /  10.5 °C 30.01in /  1016.1hPa Calm   12.0mph /  19.3km/h 90% 0.09in /  2.29mm 0.0 W/m2
20:40 53.8 °F /  12.1 °C 50.9 °F /  10.5 °C 30.02in /  1016.5hPa SSW 2.9mph /  4.7km/h 15.0mph /  24.1km/h 90% 0.08in /  2.03mm 0.0 W/m2
20:52 53.8 °F /  12.1 °C 51.3 °F /  10.7 °C 30.05in /  1017.5hPa SE 4.9mph /  7.9km/h 11.0mph /  17.7km/h 91% 0.06in /  1.52mm 0.0 W/m2
20:59 53.8 °F /  12.1 °C 50.9 °F /  10.5 °C 30.05in /  1017.5hPa SW 4.9mph /  7.9km/h 9.0mph /  14.5km/h 90% 0.06in /  1.52mm 0.0 W/m2
21:01 53.8 °F /  12.1 °C 50.9 °F /  10.5 °C 30.05in /  1017.5hPa SW 6.0mph /  9.7km/h 13.0mph /  20.9km/h 90% 0.05in /  1.27mm 0.0 W/m2
21:07 53.4 °F /  11.9 °C 50.5 °F /  10.3 °C 30.04in /  1017.2hPa SSE 2.9mph /  4.7km/h 13.0mph /  20.9km/h 90% 0.05in /  1.27mm 0.0 W/m2
21:13 53.2 °F /  11.8 °C 50.4 °F /  10.2 °C 30.04in /  1017.2hPa South 4.0mph /  6.4km/h 8.0mph /  12.9km/h 90% 0.05in /  1.27mm 0.0 W/m2
21:19 53.2 °F /  11.8 °C 50.4 °F /  10.2 °C 30.04in /  1017.2hPa SSE 2.0mph /  3.2km/h 14.0mph /  22.5km/h 90% 0.05in /  1.27mm 0.0 W/m2
21:25 53.1 °F /  11.7 °C 50.2 °F /  10.1 °C 30.04in /  1017.2hPa Calm   8.0mph /  12.9km/h 90% 0.05in /  1.27mm 0.0 W/m2
21:31 52.9 °F /  11.6 °C 50.0 °F /  10 °C 30.03in /  1016.8hPa SSW 4.0mph /  6.4km/h 11.0mph /  17.7km/h 90% 0.05in /  1.27mm 0.0 W/m2
21:37 52.7 °F /  11.5 °C 49.8 °F /  9.9 °C 30.03in /  1016.8hPa South 4.0mph /  6.4km/h 11.0mph /  17.7km/h 90% 0.06in /  1.52mm 0.0 W/m2
21:43 52.5 °F /  11.4 °C 49.6 °F /  9.8 °C 30.03in /  1016.8hPa SSW 4.0mph /  6.4km/h 10.0mph /  16.1km/h 90% 0.06in /  1.52mm 0.0 W/m2
21:50 52.3 °F /  11.3 °C 49.8 °F /  9.9 °C 30.03in /  1016.8hPa SW 4.0mph /  6.4km/h 6.0mph /  9.7km/h 91% 0.06in /  1.52mm 0.0 W/m2
21:56 52.3 °F /  11.3 °C 49.8 °F /  9.9 °C 30.03in /  1016.8hPa East 0.9mph /  1.4km/h 14.0mph /  22.5km/h 91% 0.06in /  1.52mm 0.0 W/m2
22:02 52.3 °F /  11.3 °C 49.8 °F /  9.9 °C 30.04in /  1017.2hPa South 6.0mph /  9.7km/h 11.0mph /  17.7km/h 91% 0.06in /  1.52mm 0.0 W/m2
22:10 52.2 °F /  11.2 °C 49.6 °F /  9.8 °C 30.05in /  1017.5hPa South 6.9mph /  11.1km/h 8.0mph /  12.9km/h 91% 0.06in /  1.52mm 0.0 W/m2
22:16 52.2 °F /  11.2 °C 49.3 °F /  9.6 °C 30.04in /  1017.2hPa SE 2.9mph /  4.7km/h 6.0mph /  9.7km/h 90% 0.06in /  1.52mm 0.0 W/m2
22:22 52.2 °F /  11.2 °C 49.6 °F /  9.8 °C 30.04in /  1017.2hPa SSW 0.9mph /  1.4km/h 4.0mph /  6.4km/h 91% 0.06in /  1.52mm 0.0 W/m2
22:28 52.0 °F /  11.1 °C 48.9 °F /  9.4 °C 30.05in /  1017.5hPa South 2.9mph /  4.7km/h 11.0mph /  17.7km/h 89% 0.06in /  1.52mm 0.0 W/m2
22:34 52.0 °F /  11.1 °C 48.9 °F /  9.4 °C 30.04in /  1017.2hPa SSE 0.9mph /  1.4km/h 7.0mph /  11.3km/h 89% 0.05in /  1.27mm 0.0 W/m2
22:38 51.8 °F /  11 °C 48.7 °F /  9.3 °C 30.04in /  1017.2hPa SW 0.9mph /  1.4km/h 4.0mph /  6.4km/h 89% 0.04in /  1.02mm 0.0 W/m2
22:45 51.6 °F /  10.9 °C 48.6 °F /  9.2 °C 30.04in /  1017.2hPa WSW 2.9mph /  4.7km/h 10.0mph /  16.1km/h 89% 0.04in /  1.02mm 0.0 W/m2
22:51 51.6 °F /  10.9 °C 48.2 °F /  9 °C 30.04in /  1017.2hPa SSW 4.9mph /  7.9km/h 8.0mph /  12.9km/h 88% 0.04in /  1.02mm 0.0 W/m2
22:57 51.6 °F /  10.9 °C 48.2 °F /  9 °C 30.04in /  1017.2hPa SSW 0.9mph /  1.4km/h 11.0mph /  17.7km/h 88% 0.03in /  0.76mm 0.0 W/m2
23:03 51.6 °F /  10.9 °C 48.2 °F /  9 °C 30.04in /  1017.2hPa SSE 2.0mph /  3.2km/h 4.0mph /  6.4km/h 88% 0.03in /  0.76mm 0.0 W/m2
23:09 51.8 °F /  11 °C 48.0 °F /  8.9 °C 30.04in /  1017.2hPa West 0.9mph /  1.4km/h 7.0mph /  11.3km/h 87% 0.02in /  0.51mm 0.0 W/m2
23:15 52.0 °F /  11.1 °C 48.6 °F /  9.2 °C 30.04in /  1017.2hPa SSW 2.9mph /  4.7km/h 3.0mph /  4.8km/h 88% 0.02in /  0.51mm 0.0 W/m2
23:21 52.0 °F /  11.1 °C 48.2 °F /  9 °C 30.03in /  1016.8hPa SSW 2.0mph /  3.2km/h 8.0mph /  12.9km/h 87% 0.02in /  0.51mm 0.0 W/m2
23:27 52.0 °F /  11.1 °C 47.8 °F /  8.8 °C 30.03in /  1016.8hPa South 4.0mph /  6.4km/h 9.0mph /  14.5km/h 86% 0.02in /  0.51mm 0.0 W/m2
23:33 52.2 °F /  11.2 °C 48.0 °F /  8.9 °C 30.02in /  1016.5hPa SSW 4.0mph /  6.4km/h 12.0mph /  19.3km/h 86% 0.02in /  0.51mm 0.0 W/m2
23:39 52.2 °F /  11.2 °C 47.8 °F /  8.8 °C 30.02in /  1016.5hPa SW 4.0mph /  6.4km/h 8.0mph /  12.9km/h 85% 0.01in /  0.25mm 0.0 W/m2
23:45 52.3 °F /  11.3 °C 48.0 °F /  8.9 °C 30.02in /  1016.5hPa Calm   8.0mph /  12.9km/h 85% 0.01in /  0.25mm 0.0 W/m2
23:51 52.3 °F /  11.3 °C 47.7 °F /  8.7 °C 30.01in /  1016.1hPa SSE 2.0mph /  3.2km/h 7.0mph /  11.3km/h 84% 0.01in /  0.25mm 0.0 W/m2
23:57 52.5 °F /  11.4 °C 48.2 °F /  9 °C 30.01in /  1016.1hPa Calm   4.0mph /  6.4km/h 85% 0.01in /  0.25mm 0.0 W/m2
Olympia, Windhoek, Namibia
Compliments of Weather Underground - 3 mb